sensor_id;sensor_type;location;lat;lon;timestamp;P1;durP1;ratioP1;P2;durP2;ratioP2
3865;SDS011;1948;53.250;10.412;2022-10-31T00:01:30;32.00;;;15.77;;
3865;SDS011;1948;53.250;10.412;2022-10-31T00:04:03;45.23;;;15.50;;
3865;SDS011;1948;53.250;10.412;2022-10-31T00:06:32;42.20;;;15.77;;
3865;SDS011;1948;53.250;10.412;2022-10-31T00:09:00;25.17;;;14.77;;
3865;SDS011;1948;53.250;10.412;2022-10-31T00:11:33;39.13;;;15.87;;
3865;SDS011;1948;53.250;10.412;2022-10-31T00:14:00;39.93;;;15.27;;
3865;SDS011;1948;53.250;10.412;2022-10-31T00:16:28;26.57;;;15.23;;
3865;SDS011;1948;53.250;10.412;2022-10-31T00:18:56;32.23;;;15.43;;
3865;SDS011;1948;53.250;10.412;2022-10-31T00:21:26;29.87;;;14.70;;
3865;SDS011;1948;53.250;10.412;2022-10-31T00:23:57;35.73;;;16.70;;
3865;SDS011;1948;53.250;10.412;2022-10-31T00:26:29;31.93;;;15.07;;
3865;SDS011;1948;53.250;10.412;2022-10-31T00:29:00;47.73;;;15.27;;
3865;SDS011;1948;53.250;10.412;2022-10-31T00:31:27;42.07;;;15.83;;
3865;SDS011;1948;53.250;10.412;2022-10-31T00:33:56;32.60;;;15.27;;
3865;SDS011;1948;53.250;10.412;2022-10-31T00:36:24;31.80;;;14.80;;
3865;SDS011;1948;53.250;10.412;2022-10-31T00:38:54;32.03;;;16.30;;
3865;SDS011;1948;53.250;10.412;2022-10-31T00:41:23;33.90;;;15.23;;
3865;SDS011;1948;53.250;10.412;2022-10-31T00:43:51;21.57;;;14.87;;
3865;SDS011;1948;53.250;10.412;2022-10-31T00:46:17;41.90;;;14.57;;
3865;SDS011;1948;53.250;10.412;2022-10-31T00:48:44;37.53;;;16.37;;
3865;SDS011;1948;53.250;10.412;2022-10-31T00:51:11;25.93;;;15.40;;
3865;SDS011;1948;53.250;10.412;2022-10-31T00:53:41;22.77;;;14.30;;
3865;SDS011;1948;53.250;10.412;2022-10-31T00:56:10;32.43;;;14.53;;
3865;SDS011;1948;53.250;10.412;2022-10-31T00:58:39;31.40;;;15.47;;
3865;SDS011;1948;53.250;10.412;2022-10-31T01:01:06;30.07;;;14.97;;
3865;SDS011;1948;53.250;10.412;2022-10-31T01:03:35;35.40;;;15.27;;
3865;SDS011;1948;53.250;10.412;2022-10-31T01:06:05;44.67;;;15.20;;
3865;SDS011;1948;53.250;10.412;2022-10-31T01:08:38;33.47;;;14.60;;
3865;SDS011;1948;53.250;10.412;2022-10-31T01:11:16;37.93;;;14.43;;
3865;SDS011;1948;53.250;10.412;2022-10-31T01:13:46;33.23;;;14.90;;
3865;SDS011;1948;53.250;10.412;2022-10-31T01:16:17;36.83;;;14.33;;
3865;SDS011;1948;53.250;10.412;2022-10-31T01:18:48;23.10;;;15.07;;
3865;SDS011;1948;53.250;10.412;2022-10-31T01:21:20;27.07;;;15.03;;
3865;SDS011;1948;53.250;10.412;2022-10-31T01:23:55;29.60;;;14.40;;
3865;SDS011;1948;53.250;10.412;2022-10-31T01:26:24;51.40;;;15.20;;
3865;SDS011;1948;53.250;10.412;2022-10-31T01:28:55;39.07;;;15.13;;
3865;SDS011;1948;53.250;10.412;2022-10-31T01:31:25;39.17;;;15.60;;
3865;SDS011;1948;53.250;10.412;2022-10-31T01:33:58;51.73;;;15.17;;
3865;SDS011;1948;53.250;10.412;2022-10-31T01:38:59;28.30;;;14.03;;
3865;SDS011;1948;53.250;10.412;2022-10-31T01:41:34;28.40;;;13.67;;
3865;SDS011;1948;53.250;10.412;2022-10-31T01:46:46;36.13;;;14.13;;
3865;SDS011;1948;53.250;10.412;2022-10-31T01:49:17;31.70;;;15.23;;
3865;SDS011;1948;53.250;10.412;2022-10-31T01:54:59;22.07;;;13.93;;
3865;SDS011;1948;53.250;10.412;2022-10-31T01:57:35;31.90;;;14.87;;
3865;SDS011;1948;53.250;10.412;2022-10-31T02:00:07;27.97;;;13.90;;
3865;SDS011;1948;53.250;10.412;2022-10-31T02:02:36;25.70;;;13.47;;
3865;SDS011;1948;53.250;10.412;2022-10-31T02:05:05;29.37;;;14.47;;
3865;SDS011;1948;53.250;10.412;2022-10-31T02:07:53;35.73;;;15.00;;
3865;SDS011;1948;53.250;10.412;2022-10-31T02:10:26;30.63;;;15.27;;
3865;SDS011;1948;53.250;10.412;2022-10-31T02:12:56;31.97;;;15.10;;
3865;SDS011;1948;53.250;10.412;2022-10-31T02:15:27;31.37;;;14.60;;
3865;SDS011;1948;53.250;10.412;2022-10-31T02:17:56;27.57;;;15.23;;
3865;SDS011;1948;53.250;10.412;2022-10-31T02:20:24;35.37;;;14.70;;
3865;SDS011;1948;53.250;10.412;2022-10-31T02:26:17;24.97;;;14.47;;
3865;SDS011;1948;53.250;10.412;2022-10-31T02:29:32;39.33;;;15.27;;
3865;SDS011;1948;53.250;10.412;2022-10-31T02:32:33;35.80;;;16.20;;
3865;SDS011;1948;53.250;10.412;2022-10-31T02:38:26;35.87;;;14.63;;
3865;SDS011;1948;53.250;10.412;2022-10-31T02:46:44;42.10;;;20.67;;
3865;SDS011;1948;53.250;10.412;2022-10-31T02:49:35;38.77;;;18.93;;
3865;SDS011;1948;53.250;10.412;2022-10-31T02:52:29;48.13;;;21.47;;
3865;SDS011;1948;53.250;10.412;2022-10-31T02:57:48;37.00;;;18.03;;
3865;SDS011;1948;53.250;10.412;2022-10-31T03:00:18;42.00;;;20.20;;
3865;SDS011;1948;53.250;10.412;2022-10-31T03:11:03;43.90;;;18.70;;
3865;SDS011;1948;53.250;10.412;2022-10-31T03:16:16;32.93;;;17.83;;
3865;SDS011;1948;53.250;10.412;2022-10-31T03:19:05;40.47;;;17.30;;
3865;SDS011;1948;53.250;10.412;2022-10-31T03:21:48;41.13;;;21.97;;
3865;SDS011;1948;53.250;10.412;2022-10-31T03:24:34;41.90;;;20.17;;
3865;SDS011;1948;53.250;10.412;2022-10-31T03:27:08;63.47;;;24.97;;
3865;SDS011;1948;53.250;10.412;2022-10-31T03:29:42;51.07;;;23.67;;
3865;SDS011;1948;53.250;10.412;2022-10-31T03:32:15;53.63;;;26.20;;
3865;SDS011;1948;53.250;10.412;2022-10-31T03:34:48;41.37;;;20.20;;
3865;SDS011;1948;53.250;10.412;2022-10-31T03:37:19;56.70;;;27.30;;
3865;SDS011;1948;53.250;10.412;2022-10-31T03:39:50;61.87;;;28.30;;
3865;SDS011;1948;53.250;10.412;2022-10-31T03:42:23;70.73;;;28.67;;
3865;SDS011;1948;53.250;10.412;2022-10-31T03:45:03;69.83;;;31.90;;
3865;SDS011;1948;53.250;10.412;2022-10-31T03:47:40;77.90;;;30.63;;
3865;SDS011;1948;53.250;10.412;2022-10-31T03:50:09;82.93;;;36.40;;
3865;SDS011;1948;53.250;10.412;2022-10-31T03:52:47;78.70;;;35.07;;
3865;SDS011;1948;53.250;10.412;2022-10-31T03:55:39;88.43;;;35.60;;
3865;SDS011;1948;53.250;10.412;2022-10-31T03:58:36;91.53;;;38.10;;
3865;SDS011;1948;53.250;10.412;2022-10-31T04:01:09;71.73;;;34.27;;
3865;SDS011;1948;53.250;10.412;2022-10-31T04:03:42;83.17;;;37.03;;
3865;SDS011;1948;53.250;10.412;2022-10-31T04:06:13;80.43;;;36.60;;
3865;SDS011;1948;53.250;10.412;2022-10-31T04:08:47;84.20;;;36.17;;
3865;SDS011;1948;53.250;10.412;2022-10-31T04:11:22;86.57;;;38.70;;
3865;SDS011;1948;53.250;10.412;2022-10-31T04:13:56;93.90;;;39.57;;
3865;SDS011;1948;53.250;10.412;2022-10-31T04:16:26;94.40;;;38.20;;
3865;SDS011;1948;53.250;10.412;2022-10-31T04:18:53;82.80;;;36.57;;
3865;SDS011;1948;53.250;10.412;2022-10-31T04:21:26;91.97;;;37.67;;
3865;SDS011;1948;53.250;10.412;2022-10-31T04:23:55;87.93;;;37.07;;
3865;SDS011;1948;53.250;10.412;2022-10-31T04:26:24;108.53;;;42.10;;
3865;SDS011;1948;53.250;10.412;2022-10-31T04:28:54;92.00;;;38.10;;
3865;SDS011;1948;53.250;10.412;2022-10-31T04:31:23;90.30;;;38.57;;
3865;SDS011;1948;53.250;10.412;2022-10-31T04:33:50;88.73;;;38.27;;
3865;SDS011;1948;53.250;10.412;2022-10-31T04:36:17;97.50;;;41.70;;
3865;SDS011;1948;53.250;10.412;2022-10-31T04:38:46;93.90;;;41.03;;
3865;SDS011;1948;53.250;10.412;2022-10-31T04:41:17;107.13;;;40.50;;
3865;SDS011;1948;53.250;10.412;2022-10-31T04:43:44;86.73;;;36.83;;
3865;SDS011;1948;53.250;10.412;2022-10-31T04:46:11;91.30;;;36.77;;
3865;SDS011;1948;53.250;10.412;2022-10-31T04:48:40;83.30;;;36.83;;
3865;SDS011;1948;53.250;10.412;2022-10-31T04:51:07;94.30;;;39.00;;
3865;SDS011;1948;53.250;10.412;2022-10-31T04:53:36;85.40;;;38.57;;
3865;SDS011;1948;53.250;10.412;2022-10-31T04:56:06;83.63;;;37.93;;
3865;SDS011;1948;53.250;10.412;2022-10-31T04:58:33;87.37;;;38.43;;
3865;SDS011;1948;53.250;10.412;2022-10-31T05:01:00;82.17;;;40.47;;
3865;SDS011;1948;53.250;10.412;2022-10-31T05:03:27;90.97;;;36.97;;
3865;SDS011;1948;53.250;10.412;2022-10-31T05:05:58;83.93;;;36.47;;
3865;SDS011;1948;53.250;10.412;2022-10-31T05:08:27;63.40;;;35.10;;
3865;SDS011;1948;53.250;10.412;2022-10-31T05:10:54;80.97;;;37.00;;
3865;SDS011;1948;53.250;10.412;2022-10-31T05:13:26;88.27;;;38.77;;
3865;SDS011;1948;53.250;10.412;2022-10-31T05:15:54;87.50;;;38.80;;
3865;SDS011;1948;53.250;10.412;2022-10-31T05:18:21;76.90;;;37.60;;
3865;SDS011;1948;53.250;10.412;2022-10-31T05:20:48;94.97;;;38.23;;
3865;SDS011;1948;53.250;10.412;2022-10-31T05:23:15;85.67;;;38.00;;
3865;SDS011;1948;53.250;10.412;2022-10-31T05:25:42;93.20;;;37.03;;
3865;SDS011;1948;53.250;10.412;2022-10-31T05:28:09;96.07;;;39.20;;
3865;SDS011;1948;53.250;10.412;2022-10-31T05:30:39;100.30;;;39.00;;
3865;SDS011;1948;53.250;10.412;2022-10-31T05:33:05;99.80;;;39.03;;
3865;SDS011;1948;53.250;10.412;2022-10-31T05:35:32;101.07;;;37.70;;
3865;SDS011;1948;53.250;10.412;2022-10-31T05:37:59;119.97;;;42.87;;
3865;SDS011;1948;53.250;10.412;2022-10-31T05:40:29;95.20;;;38.53;;
3865;SDS011;1948;53.250;10.412;2022-10-31T05:42:56;92.93;;;38.90;;
3865;SDS011;1948;53.250;10.412;2022-10-31T05:45:26;103.63;;;40.07;;
3865;SDS011;1948;53.250;10.412;2022-10-31T05:47:56;93.23;;;39.03;;
3865;SDS011;1948;53.250;10.412;2022-10-31T05:50:29;85.43;;;38.80;;
3865;SDS011;1948;53.250;10.412;2022-10-31T05:53:00;78.93;;;38.13;;
3865;SDS011;1948;53.250;10.412;2022-10-31T05:55:30;95.77;;;38.13;;
3865;SDS011;1948;53.250;10.412;2022-10-31T05:57:58;80.27;;;37.70;;
3865;SDS011;1948;53.250;10.412;2022-10-31T06:00:25;90.00;;;38.97;;
3865;SDS011;1948;53.250;10.412;2022-10-31T06:02:59;80.43;;;37.00;;
3865;SDS011;1948;53.250;10.412;2022-10-31T06:05:28;95.63;;;37.10;;
3865;SDS011;1948;53.250;10.412;2022-10-31T06:07:57;86.80;;;38.97;;
3865;SDS011;1948;53.250;10.412;2022-10-31T06:10:25;76.30;;;35.80;;
3865;SDS011;1948;53.250;10.412;2022-10-31T06:12:53;72.90;;;35.70;;
3865;SDS011;1948;53.250;10.412;2022-10-31T06:15:20;83.10;;;36.70;;
3865;SDS011;1948;53.250;10.412;2022-10-31T06:18:00;86.40;;;37.60;;
3865;SDS011;1948;53.250;10.412;2022-10-31T06:20:31;86.23;;;37.40;;
3865;SDS011;1948;53.250;10.412;2022-10-31T06:23:01;85.73;;;35.17;;
3865;SDS011;1948;53.250;10.412;2022-10-31T06:25:31;81.00;;;35.70;;
3865;SDS011;1948;53.250;10.412;2022-10-31T06:27:59;89.23;;;33.07;;
3865;SDS011;1948;53.250;10.412;2022-10-31T06:30:28;81.60;;;34.73;;
3865;SDS011;1948;53.250;10.412;2022-10-31T06:33:01;80.97;;;34.33;;
3865;SDS011;1948;53.250;10.412;2022-10-31T06:35:32;75.60;;;34.43;;
3865;SDS011;1948;53.250;10.412;2022-10-31T06:37:59;75.87;;;33.60;;
3865;SDS011;1948;53.250;10.412;2022-10-31T06:40:27;82.77;;;35.60;;
3865;SDS011;1948;53.250;10.412;2022-10-31T06:43:00;78.03;;;32.60;;
3865;SDS011;1948;53.250;10.412;2022-10-31T06:45:28;74.13;;;33.87;;
3865;SDS011;1948;53.250;10.412;2022-10-31T06:47:55;80.40;;;33.00;;
3865;SDS011;1948;53.250;10.412;2022-10-31T06:50:42;69.80;;;31.77;;
3865;SDS011;1948;53.250;10.412;2022-10-31T06:53:08;73.97;;;33.20;;
3865;SDS011;1948;53.250;10.412;2022-10-31T06:55:41;64.17;;;32.37;;
3865;SDS011;1948;53.250;10.412;2022-10-31T06:58:08;59.37;;;30.00;;
3865;SDS011;1948;53.250;10.412;2022-10-31T07:00:38;70.60;;;30.10;;
3865;SDS011;1948;53.250;10.412;2022-10-31T07:03:06;73.53;;;29.10;;
3865;SDS011;1948;53.250;10.412;2022-10-31T07:05:39;60.63;;;31.27;;
3865;SDS011;1948;53.250;10.412;2022-10-31T07:08:09;61.23;;;28.40;;
3865;SDS011;1948;53.250;10.412;2022-10-31T07:10:39;57.57;;;29.30;;
3865;SDS011;1948;53.250;10.412;2022-10-31T07:13:11;57.23;;;27.30;;
3865;SDS011;1948;53.250;10.412;2022-10-31T07:15:40;67.53;;;27.60;;
3865;SDS011;1948;53.250;10.412;2022-10-31T07:18:11;58.17;;;27.27;;
3865;SDS011;1948;53.250;10.412;2022-10-31T07:20:39;67.57;;;27.43;;
3865;SDS011;1948;53.250;10.412;2022-10-31T07:23:06;54.30;;;27.20;;
3865;SDS011;1948;53.250;10.412;2022-10-31T07:25:38;58.27;;;27.77;;
3865;SDS011;1948;53.250;10.412;2022-10-31T07:28:06;53.80;;;26.87;;
3865;SDS011;1948;53.250;10.412;2022-10-31T07:30:36;64.17;;;27.50;;
3865;SDS011;1948;53.250;10.412;2022-10-31T07:33:06;58.60;;;26.10;;
3865;SDS011;1948;53.250;10.412;2022-10-31T07:35:35;55.07;;;25.77;;
3865;SDS011;1948;53.250;10.412;2022-10-31T07:38:10;47.97;;;24.83;;
3865;SDS011;1948;53.250;10.412;2022-10-31T07:40:38;50.53;;;25.93;;
3865;SDS011;1948;53.250;10.412;2022-10-31T07:43:06;55.43;;;26.47;;
3865;SDS011;1948;53.250;10.412;2022-10-31T07:45:39;56.07;;;23.80;;
3865;SDS011;1948;53.250;10.412;2022-10-31T07:48:09;52.63;;;25.00;;
3865;SDS011;1948;53.250;10.412;2022-10-31T07:50:36;53.80;;;25.67;;
3865;SDS011;1948;53.250;10.412;2022-10-31T07:53:09;60.00;;;24.80;;
3865;SDS011;1948;53.250;10.412;2022-10-31T07:55:39;58.27;;;23.57;;
3865;SDS011;1948;53.250;10.412;2022-10-31T07:58:08;56.70;;;24.57;;
3865;SDS011;1948;53.250;10.412;2022-10-31T08:00:39;44.63;;;23.30;;
3865;SDS011;1948;53.250;10.412;2022-10-31T08:03:09;55.23;;;24.17;;
3865;SDS011;1948;53.250;10.412;2022-10-31T08:05:41;43.30;;;22.00;;
3865;SDS011;1948;53.250;10.412;2022-10-31T08:08:12;51.77;;;22.30;;
3865;SDS011;1948;53.250;10.412;2022-10-31T08:10:43;47.90;;;22.57;;
3865;SDS011;1948;53.250;10.412;2022-10-31T08:13:13;39.10;;;22.10;;
3865;SDS011;1948;53.250;10.412;2022-10-31T08:15:42;40.53;;;20.67;;
3865;SDS011;1948;53.250;10.412;2022-10-31T08:18:17;38.70;;;19.60;;
3865;SDS011;1948;53.250;10.412;2022-10-31T08:20:47;51.10;;;20.33;;
3865;SDS011;1948;53.250;10.412;2022-10-31T08:23:14;51.93;;;21.73;;
3865;SDS011;1948;53.250;10.412;2022-10-31T08:25:43;44.90;;;20.77;;
3865;SDS011;1948;53.250;10.412;2022-10-31T08:28:13;38.63;;;20.13;;
3865;SDS011;1948;53.250;10.412;2022-10-31T08:30:41;40.40;;;20.33;;
3865;SDS011;1948;53.250;10.412;2022-10-31T08:33:13;43.03;;;19.33;;
3865;SDS011;1948;53.250;10.412;2022-10-31T08:35:45;44.33;;;19.97;;
3865;SDS011;1948;53.250;10.412;2022-10-31T08:38:13;45.73;;;20.60;;
3865;SDS011;1948;53.250;10.412;2022-10-31T08:40:40;36.97;;;19.07;;
3865;SDS011;1948;53.250;10.412;2022-10-31T08:43:17;42.60;;;19.80;;
3865;SDS011;1948;53.250;10.412;2022-10-31T08:45:47;45.10;;;20.50;;
3865;SDS011;1948;53.250;10.412;2022-10-31T08:48:18;41.30;;;20.97;;
3865;SDS011;1948;53.250;10.412;2022-10-31T08:50:47;39.63;;;19.00;;
3865;SDS011;1948;53.250;10.412;2022-10-31T08:53:15;39.13;;;19.53;;
3865;SDS011;1948;53.250;10.412;2022-10-31T08:55:46;44.73;;;19.83;;
3865;SDS011;1948;53.250;10.412;2022-10-31T08:58:19;35.33;;;18.03;;
3865;SDS011;1948;53.250;10.412;2022-10-31T09:00:47;37.90;;;18.70;;
3865;SDS011;1948;53.250;10.412;2022-10-31T09:03:18;37.23;;;16.73;;
3865;SDS011;1948;53.250;10.412;2022-10-31T09:05:57;35.20;;;19.10;;
3865;SDS011;1948;53.250;10.412;2022-10-31T09:08:29;38.50;;;18.80;;
3865;SDS011;1948;53.250;10.412;2022-10-31T09:10:57;48.50;;;22.00;;
3865;SDS011;1948;53.250;10.412;2022-10-31T09:13:27;34.87;;;17.77;;
3865;SDS011;1948;53.250;10.412;2022-10-31T09:15:56;33.10;;;17.93;;
3865;SDS011;1948;53.250;10.412;2022-10-31T09:18:26;34.73;;;18.23;;
3865;SDS011;1948;53.250;10.412;2022-10-31T09:20:58;39.10;;;18.93;;
3865;SDS011;1948;53.250;10.412;2022-10-31T09:23:28;42.80;;;18.70;;
3865;SDS011;1948;53.250;10.412;2022-10-31T09:25:59;41.63;;;17.47;;
3865;SDS011;1948;53.250;10.412;2022-10-31T09:28:32;29.80;;;16.77;;
3865;SDS011;1948;53.250;10.412;2022-10-31T09:31:01;33.27;;;17.00;;
3865;SDS011;1948;53.250;10.412;2022-10-31T09:33:28;34.23;;;16.20;;
3865;SDS011;1948;53.250;10.412;2022-10-31T09:35:57;32.50;;;16.80;;
3865;SDS011;1948;53.250;10.412;2022-10-31T09:38:24;40.90;;;15.73;;
3865;SDS011;1948;53.250;10.412;2022-10-31T09:41:06;33.00;;;17.30;;
3865;SDS011;1948;53.250;10.412;2022-10-31T09:52:35;28.03;;;15.10;;
3865;SDS011;1948;53.250;10.412;2022-10-31T09:58:05;27.70;;;14.00;;
3865;SDS011;1948;53.250;10.412;2022-10-31T10:00:36;35.13;;;14.13;;
3865;SDS011;1948;53.250;10.412;2022-10-31T10:03:10;26.63;;;12.77;;
3865;SDS011;1948;53.250;10.412;2022-10-31T10:06:11;25.37;;;12.70;;
3865;SDS011;1948;53.250;10.412;2022-10-31T10:08:47;25.37;;;13.00;;
3865;SDS011;1948;53.250;10.412;2022-10-31T10:23:20;23.93;;;12.53;;
3865;SDS011;1948;53.250;10.412;2022-10-31T10:26:37;17.93;;;11.57;;
3865;SDS011;1948;53.250;10.412;2022-10-31T10:29:17;25.33;;;12.47;;
3865;SDS011;1948;53.250;10.412;2022-10-31T10:32:05;20.87;;;11.17;;
3865;SDS011;1948;53.250;10.412;2022-10-31T10:34:47;19.23;;;9.93;;
3865;SDS011;1948;53.250;10.412;2022-10-31T10:52:29;18.00;;;9.43;;
3865;SDS011;1948;53.250;10.412;2022-10-31T10:55:29;14.80;;;9.23;;
3865;SDS011;1948;53.250;10.412;2022-10-31T10:58:06;15.50;;;8.90;;
3865;SDS011;1948;53.250;10.412;2022-10-31T11:00:39;14.10;;;8.27;;
3865;SDS011;1948;53.250;10.412;2022-10-31T11:03:18;14.00;;;9.20;;
3865;SDS011;1948;53.250;10.412;2022-10-31T11:05:52;16.77;;;9.73;;
3865;SDS011;1948;53.250;10.412;2022-10-31T11:08:32;15.10;;;8.90;;
3865;SDS011;1948;53.250;10.412;2022-10-31T11:11:07;16.67;;;9.67;;
3865;SDS011;1948;53.250;10.412;2022-10-31T11:14:00;15.57;;;9.10;;
3865;SDS011;1948;53.250;10.412;2022-10-31T11:16:38;9.90;;;8.17;;
3865;SDS011;1948;53.250;10.412;2022-10-31T11:21:41;12.83;;;8.33;;
3865;SDS011;1948;53.250;10.412;2022-10-31T11:24:20;21.90;;;9.30;;
3865;SDS011;1948;53.250;10.412;2022-10-31T11:27:03;12.90;;;8.10;;
3865;SDS011;1948;53.250;10.412;2022-10-31T11:29:42;12.80;;;8.47;;
3865;SDS011;1948;53.250;10.412;2022-10-31T11:32:29;16.50;;;9.83;;
3865;SDS011;1948;53.250;10.412;2022-10-31T11:35:00;21.53;;;8.67;;
3865;SDS011;1948;53.250;10.412;2022-10-31T11:37:40;13.70;;;7.97;;
3865;SDS011;1948;53.250;10.412;2022-10-31T11:40:16;12.87;;;6.83;;
3865;SDS011;1948;53.250;10.412;2022-10-31T11:42:49;10.37;;;7.57;;
3865;SDS011;1948;53.250;10.412;2022-10-31T11:47:50;8.70;;;6.37;;
3865;SDS011;1948;53.250;10.412;2022-10-31T11:50:28;9.17;;;6.93;;
3865;SDS011;1948;53.250;10.412;2022-10-31T11:53:11;10.60;;;6.90;;
3865;SDS011;1948;53.250;10.412;2022-10-31T11:55:47;13.00;;;6.13;;
3865;SDS011;1948;53.250;10.412;2022-10-31T11:59:03;14.87;;;7.60;;
3865;SDS011;1948;53.250;10.412;2022-10-31T12:01:32;8.10;;;7.00;;
3865;SDS011;1948;53.250;10.412;2022-10-31T12:04:10;6.87;;;6.10;;
3865;SDS011;1948;53.250;10.412;2022-10-31T12:06:39;7.10;;;5.97;;
3865;SDS011;1948;53.250;10.412;2022-10-31T12:09:22;9.80;;;6.20;;
3865;SDS011;1948;53.250;10.412;2022-10-31T12:45:56;5.97;;;5.17;;
3865;SDS011;1948;53.250;10.412;2022-10-31T12:59:51;5.40;;;4.93;;
3865;SDS011;1948;53.250;10.412;2022-10-31T13:05:48;7.20;;;5.30;;
3865;SDS011;1948;53.250;10.412;2022-10-31T13:08:28;7.13;;;5.10;;
3865;SDS011;1948;53.250;10.412;2022-10-31T13:11:12;11.33;;;5.80;;
3865;SDS011;1948;53.250;10.412;2022-10-31T13:13:49;7.00;;;4.93;;
3865;SDS011;1948;53.250;10.412;2022-10-31T13:16:22;9.87;;;6.20;;
3865;SDS011;1948;53.250;10.412;2022-10-31T13:19:02;5.83;;;5.10;;
3865;SDS011;1948;53.250;10.412;2022-10-31T13:22:00;9.40;;;4.87;;
3865;SDS011;1948;53.250;10.412;2022-10-31T13:30:20;8.93;;;6.50;;
3865;SDS011;1948;53.250;10.412;2022-10-31T13:44:26;7.50;;;5.80;;
3865;SDS011;1948;53.250;10.412;2022-10-31T13:47:03;6.03;;;5.43;;
3865;SDS011;1948;53.250;10.412;2022-10-31T13:52:48;10.10;;;7.60;;
3865;SDS011;1948;53.250;10.412;2022-10-31T14:07:09;13.53;;;6.27;;
3865;SDS011;1948;53.250;10.412;2022-10-31T14:14:56;8.83;;;5.20;;
3865;SDS011;1948;53.250;10.412;2022-10-31T14:18:00;10.83;;;6.30;;
3865;SDS011;1948;53.250;10.412;2022-10-31T14:20:34;9.13;;;6.20;;
3865;SDS011;1948;53.250;10.412;2022-10-31T14:28:55;11.23;;;6.37;;
3865;SDS011;1948;53.250;10.412;2022-10-31T14:31:34;12.33;;;6.37;;
3865;SDS011;1948;53.250;10.412;2022-10-31T14:34:26;14.83;;;6.10;;
3865;SDS011;1948;53.250;10.412;2022-10-31T14:40:22;11.37;;;6.53;;
3865;SDS011;1948;53.250;10.412;2022-10-31T14:51:01;11.80;;;7.30;;
3865;SDS011;1948;53.250;10.412;2022-10-31T14:53:51;15.10;;;8.30;;
3865;SDS011;1948;53.250;10.412;2022-10-31T14:56:29;12.20;;;8.33;;
3865;SDS011;1948;53.250;10.412;2022-10-31T14:59:01;14.93;;;8.00;;
3865;SDS011;1948;53.250;10.412;2022-10-31T15:01:34;16.87;;;8.53;;
3865;SDS011;1948;53.250;10.412;2022-10-31T15:04:07;13.90;;;8.60;;
3865;SDS011;1948;53.250;10.412;2022-10-31T15:06:50;14.87;;;8.93;;
3865;SDS011;1948;53.250;10.412;2022-10-31T15:09:56;10.77;;;7.53;;
3865;SDS011;1948;53.250;10.412;2022-10-31T15:12:33;19.10;;;9.60;;
3865;SDS011;1948;53.250;10.412;2022-10-31T15:15:11;13.13;;;8.63;;
3865;SDS011;1948;53.250;10.412;2022-10-31T15:17:55;15.33;;;8.37;;
3865;SDS011;1948;53.250;10.412;2022-10-31T15:20:26;14.43;;;8.67;;
3865;SDS011;1948;53.250;10.412;2022-10-31T15:23:16;12.80;;;7.90;;
3865;SDS011;1948;53.250;10.412;2022-10-31T15:25:49;11.70;;;8.30;;
3865;SDS011;1948;53.250;10.412;2022-10-31T15:28:23;20.23;;;8.40;;
3865;SDS011;1948;53.250;10.412;2022-10-31T15:31:01;13.77;;;8.37;;
3865;SDS011;1948;53.250;10.412;2022-10-31T15:33:30;15.87;;;9.10;;
3865;SDS011;1948;53.250;10.412;2022-10-31T15:36:17;18.50;;;10.50;;
3865;SDS011;1948;53.250;10.412;2022-10-31T15:38:56;14.10;;;8.70;;
3865;SDS011;1948;53.250;10.412;2022-10-31T15:43:54;19.87;;;11.07;;
3865;SDS011;1948;53.250;10.412;2022-10-31T15:46:28;15.40;;;11.30;;
3865;SDS011;1948;53.250;10.412;2022-10-31T15:48:56;22.87;;;11.57;;
3865;SDS011;1948;53.250;10.412;2022-10-31T15:51:27;22.10;;;12.77;;
3865;SDS011;1948;53.250;10.412;2022-10-31T15:53:58;30.00;;;17.10;;
3865;SDS011;1948;53.250;10.412;2022-10-31T15:56:30;26.83;;;17.47;;
3865;SDS011;1948;53.250;10.412;2022-10-31T15:58:58;27.67;;;18.30;;
3865;SDS011;1948;53.250;10.412;2022-10-31T16:01:30;31.83;;;20.80;;
3865;SDS011;1948;53.250;10.412;2022-10-31T16:06:39;34.40;;;19.70;;
3865;SDS011;1948;53.250;10.412;2022-10-31T16:09:21;37.37;;;20.87;;
3865;SDS011;1948;53.250;10.412;2022-10-31T16:11:49;38.93;;;19.30;;
3865;SDS011;1948;53.250;10.412;2022-10-31T16:14:18;32.37;;;19.80;;
3865;SDS011;1948;53.250;10.412;2022-10-31T16:16:52;31.20;;;21.60;;
3865;SDS011;1948;53.250;10.412;2022-10-31T16:19:26;37.23;;;21.60;;
3865;SDS011;1948;53.250;10.412;2022-10-31T16:24:45;35.00;;;21.30;;
3865;SDS011;1948;53.250;10.412;2022-10-31T16:27:20;31.27;;;21.50;;
3865;SDS011;1948;53.250;10.412;2022-10-31T16:29:53;40.23;;;21.53;;
3865;SDS011;1948;53.250;10.412;2022-10-31T16:32:26;31.60;;;19.47;;
3865;SDS011;1948;53.250;10.412;2022-10-31T16:35:16;29.67;;;19.40;;
3865;SDS011;1948;53.250;10.412;2022-10-31T16:37:51;26.57;;;18.60;;
3865;SDS011;1948;53.250;10.412;2022-10-31T16:40:19;29.80;;;20.37;;
3865;SDS011;1948;53.250;10.412;2022-10-31T16:42:46;37.57;;;19.77;;
3865;SDS011;1948;53.250;10.412;2022-10-31T16:45:21;39.50;;;20.63;;
3865;SDS011;1948;53.250;10.412;2022-10-31T16:47:50;33.87;;;19.50;;
3865;SDS011;1948;53.250;10.412;2022-10-31T16:50:23;31.97;;;19.27;;
3865;SDS011;1948;53.250;10.412;2022-10-31T16:52:56;33.00;;;18.63;;
3865;SDS011;1948;53.250;10.412;2022-10-31T16:55:46;42.63;;;22.07;;
3865;SDS011;1948;53.250;10.412;2022-10-31T16:58:25;32.60;;;19.73;;
3865;SDS011;1948;53.250;10.412;2022-10-31T17:00:59;32.97;;;20.53;;
3865;SDS011;1948;53.250;10.412;2022-10-31T17:03:28;30.23;;;18.80;;
3865;SDS011;1948;53.250;10.412;2022-10-31T17:05:56;31.30;;;18.97;;
3865;SDS011;1948;53.250;10.412;2022-10-31T17:08:25;33.13;;;18.47;;
3865;SDS011;1948;53.250;10.412;2022-10-31T17:10:55;41.50;;;19.60;;
3865;SDS011;1948;53.250;10.412;2022-10-31T17:13:27;39.63;;;19.77;;
3865;SDS011;1948;53.250;10.412;2022-10-31T17:15:57;37.20;;;20.20;;
3865;SDS011;1948;53.250;10.412;2022-10-31T17:18:26;42.83;;;22.20;;
3865;SDS011;1948;53.250;10.412;2022-10-31T17:20:57;39.07;;;21.10;;
3865;SDS011;1948;53.250;10.412;2022-10-31T17:23:27;47.67;;;25.60;;
3865;SDS011;1948;53.250;10.412;2022-10-31T17:25:58;51.63;;;28.03;;
3865;SDS011;1948;53.250;10.412;2022-10-31T17:28:29;49.80;;;27.00;;
3865;SDS011;1948;53.250;10.412;2022-10-31T17:30:59;59.10;;;26.30;;
3865;SDS011;1948;53.250;10.412;2022-10-31T17:33:31;54.37;;;27.07;;
3865;SDS011;1948;53.250;10.412;2022-10-31T17:36:26;48.03;;;28.07;;
3865;SDS011;1948;53.250;10.412;2022-10-31T17:38:58;54.43;;;28.90;;
3865;SDS011;1948;53.250;10.412;2022-10-31T17:41:25;51.37;;;26.93;;
3865;SDS011;1948;53.250;10.412;2022-10-31T17:43:55;52.77;;;26.77;;
3865;SDS011;1948;53.250;10.412;2022-10-31T17:46:23;44.60;;;26.60;;
3865;SDS011;1948;53.250;10.412;2022-10-31T17:48:51;51.90;;;27.40;;
3865;SDS011;1948;53.250;10.412;2022-10-31T17:51:18;55.17;;;24.90;;
3865;SDS011;1948;53.250;10.412;2022-10-31T17:53:47;46.07;;;25.10;;
3865;SDS011;1948;53.250;10.412;2022-10-31T17:56:14;44.80;;;26.07;;
3865;SDS011;1948;53.250;10.412;2022-10-31T17:58:45;45.90;;;26.80;;
3865;SDS011;1948;53.250;10.412;2022-10-31T18:01:13;42.30;;;26.03;;
3865;SDS011;1948;53.250;10.412;2022-10-31T18:03:42;53.50;;;25.57;;
3865;SDS011;1948;53.250;10.412;2022-10-31T18:06:10;49.17;;;26.13;;
3865;SDS011;1948;53.250;10.412;2022-10-31T18:08:39;51.03;;;25.93;;
3865;SDS011;1948;53.250;10.412;2022-10-31T18:11:11;50.40;;;27.07;;
3865;SDS011;1948;53.250;10.412;2022-10-31T18:13:41;49.67;;;25.43;;
3865;SDS011;1948;53.250;10.412;2022-10-31T18:16:09;51.00;;;23.87;;
3865;SDS011;1948;53.250;10.412;2022-10-31T18:18:39;46.60;;;24.47;;
3865;SDS011;1948;53.250;10.412;2022-10-31T18:21:09;47.10;;;23.73;;
3865;SDS011;1948;53.250;10.412;2022-10-31T18:23:38;56.00;;;26.10;;